sensor_id;sensor_type;location;lat;lon;timestamp;P1;durP1;ratioP1;P2;durP2;ratioP2
2966;SDS011;1493;51.496;7.210;2023-12-14T00:00:27;16.23;;;11.80;;
2966;SDS011;1493;51.496;7.210;2023-12-14T00:02:53;22.07;;;14.50;;
2966;SDS011;1493;51.496;7.210;2023-12-14T00:05:20;23.43;;;14.67;;
2966;SDS011;1493;51.496;7.210;2023-12-14T00:07:47;21.77;;;14.27;;
2966;SDS011;1493;51.496;7.210;2023-12-14T00:10:14;24.67;;;14.10;;
2966;SDS011;1493;51.496;7.210;2023-12-14T00:12:42;26.57;;;15.27;;
2966;SDS011;1493;51.496;7.210;2023-12-14T00:15:11;24.93;;;13.97;;
2966;SDS011;1493;51.496;7.210;2023-12-14T00:17:38;22.63;;;13.43;;
2966;SDS011;1493;51.496;7.210;2023-12-14T00:20:05;27.93;;;14.30;;
2966;SDS011;1493;51.496;7.210;2023-12-14T00:22:37;22.17;;;12.80;;
2966;SDS011;1493;51.496;7.210;2023-12-14T00:25:08;17.87;;;11.90;;
2966;SDS011;1493;51.496;7.210;2023-12-14T00:27:34;19.33;;;10.70;;
2966;SDS011;1493;51.496;7.210;2023-12-14T00:30:01;22.07;;;13.87;;
2966;SDS011;1493;51.496;7.210;2023-12-14T00:32:30;16.50;;;10.33;;
2966;SDS011;1493;51.496;7.210;2023-12-14T00:34:56;18.33;;;10.83;;
2966;SDS011;1493;51.496;7.210;2023-12-14T00:37:23;17.10;;;11.47;;
2966;SDS011;1493;51.496;7.210;2023-12-14T00:39:50;20.67;;;11.27;;
2966;SDS011;1493;51.496;7.210;2023-12-14T00:42:17;15.77;;;9.87;;
2966;SDS011;1493;51.496;7.210;2023-12-14T00:44:43;15.90;;;10.00;;
2966;SDS011;1493;51.496;7.210;2023-12-14T00:47:10;15.30;;;11.33;;
2966;SDS011;1493;51.496;7.210;2023-12-14T00:49:38;13.90;;;9.13;;
2966;SDS011;1493;51.496;7.210;2023-12-14T00:52:05;13.40;;;9.60;;
2966;SDS011;1493;51.496;7.210;2023-12-14T00:54:32;16.10;;;11.43;;
2966;SDS011;1493;51.496;7.210;2023-12-14T00:56:59;16.60;;;11.10;;
2966;SDS011;1493;51.496;7.210;2023-12-14T00:59:25;15.70;;;9.83;;
2966;SDS011;1493;51.496;7.210;2023-12-14T01:01:52;10.57;;;7.80;;
2966;SDS011;1493;51.496;7.210;2023-12-14T01:04:19;11.60;;;8.53;;
2966;SDS011;1493;51.496;7.210;2023-12-14T01:06:47;12.47;;;7.70;;
2966;SDS011;1493;51.496;7.210;2023-12-14T01:09:14;10.37;;;7.80;;
2966;SDS011;1493;51.496;7.210;2023-12-14T01:11:40;11.20;;;8.13;;
2966;SDS011;1493;51.496;7.210;2023-12-14T01:14:07;9.80;;;7.07;;
2966;SDS011;1493;51.496;7.210;2023-12-14T01:16:34;14.77;;;7.73;;
2966;SDS011;1493;51.496;7.210;2023-12-14T01:19:01;7.90;;;6.30;;
2966;SDS011;1493;51.496;7.210;2023-12-14T01:21:27;11.43;;;7.20;;
2966;SDS011;1493;51.496;7.210;2023-12-14T01:23:55;11.40;;;7.70;;
2966;SDS011;1493;51.496;7.210;2023-12-14T01:26:22;14.73;;;6.70;;
2966;SDS011;1493;51.496;7.210;2023-12-14T01:28:49;8.87;;;6.40;;
2966;SDS011;1493;51.496;7.210;2023-12-14T01:31:16;9.53;;;7.20;;
2966;SDS011;1493;51.496;7.210;2023-12-14T01:33:43;7.30;;;6.07;;
2966;SDS011;1493;51.496;7.210;2023-12-14T01:36:10;9.17;;;6.30;;
2966;SDS011;1493;51.496;7.210;2023-12-14T01:38:37;8.70;;;7.30;;
2966;SDS011;1493;51.496;7.210;2023-12-14T01:41:06;6.67;;;5.30;;
2966;SDS011;1493;51.496;7.210;2023-12-14T01:43:32;9.20;;;6.57;;
2966;SDS011;1493;51.496;7.210;2023-12-14T01:45:59;12.10;;;7.90;;
2966;SDS011;1493;51.496;7.210;2023-12-14T01:48:26;11.53;;;8.50;;
2966;SDS011;1493;51.496;7.210;2023-12-14T01:50:53;10.70;;;7.23;;
2966;SDS011;1493;51.496;7.210;2023-12-14T01:53:20;12.97;;;9.03;;
2966;SDS011;1493;51.496;7.210;2023-12-14T01:55:47;10.73;;;7.70;;
2966;SDS011;1493;51.496;7.210;2023-12-14T01:58:15;14.90;;;8.20;;
2966;SDS011;1493;51.496;7.210;2023-12-14T02:00:43;13.53;;;9.33;;
2966;SDS011;1493;51.496;7.210;2023-12-14T02:03:15;14.00;;;8.80;;
2966;SDS011;1493;51.496;7.210;2023-12-14T02:05:42;18.13;;;10.87;;
2966;SDS011;1493;51.496;7.210;2023-12-14T02:08:09;14.40;;;10.40;;
2966;SDS011;1493;51.496;7.210;2023-12-14T02:10:35;15.70;;;10.20;;
2966;SDS011;1493;51.496;7.210;2023-12-14T02:13:02;12.40;;;8.80;;
2966;SDS011;1493;51.496;7.210;2023-12-14T02:15:30;15.30;;;10.20;;
2966;SDS011;1493;51.496;7.210;2023-12-14T02:17:57;15.73;;;10.40;;
2966;SDS011;1493;51.496;7.210;2023-12-14T02:20:24;16.03;;;9.73;;
2966;SDS011;1493;51.496;7.210;2023-12-14T02:22:52;15.43;;;10.77;;
2966;SDS011;1493;51.496;7.210;2023-12-14T02:25:20;22.63;;;11.93;;
2966;SDS011;1493;51.496;7.210;2023-12-14T02:27:50;20.37;;;13.10;;
2966;SDS011;1493;51.496;7.210;2023-12-14T02:30:17;18.17;;;11.60;;
2966;SDS011;1493;51.496;7.210;2023-12-14T02:32:44;23.23;;;13.70;;
2966;SDS011;1493;51.496;7.210;2023-12-14T02:35:11;23.47;;;14.40;;
2966;SDS011;1493;51.496;7.210;2023-12-14T02:37:38;18.43;;;12.57;;
2966;SDS011;1493;51.496;7.210;2023-12-14T02:40:08;23.07;;;13.00;;
2966;SDS011;1493;51.496;7.210;2023-12-14T02:42:35;15.50;;;10.73;;
2966;SDS011;1493;51.496;7.210;2023-12-14T02:45:03;15.57;;;10.73;;
2966;SDS011;1493;51.496;7.210;2023-12-14T02:47:30;18.57;;;11.60;;
2966;SDS011;1493;51.496;7.210;2023-12-14T02:49:57;15.70;;;10.80;;
2966;SDS011;1493;51.496;7.210;2023-12-14T02:52:24;16.13;;;9.93;;
2966;SDS011;1493;51.496;7.210;2023-12-14T02:54:52;21.13;;;12.43;;
2966;SDS011;1493;51.496;7.210;2023-12-14T02:57:20;15.10;;;10.47;;
2966;SDS011;1493;51.496;7.210;2023-12-14T02:59:47;20.80;;;11.10;;
2966;SDS011;1493;51.496;7.210;2023-12-14T03:02:14;17.70;;;11.13;;
2966;SDS011;1493;51.496;7.210;2023-12-14T03:04:40;25.93;;;12.43;;
2966;SDS011;1493;51.496;7.210;2023-12-14T03:07:07;20.67;;;12.87;;
2966;SDS011;1493;51.496;7.210;2023-12-14T03:09:34;17.37;;;11.30;;
2966;SDS011;1493;51.496;7.210;2023-12-14T03:12:01;16.23;;;10.33;;
2966;SDS011;1493;51.496;7.210;2023-12-14T03:14:31;18.27;;;10.70;;
2966;SDS011;1493;51.496;7.210;2023-12-14T03:16:59;17.83;;;10.40;;
2966;SDS011;1493;51.496;7.210;2023-12-14T03:19:35;15.50;;;10.53;;
2966;SDS011;1493;51.496;7.210;2023-12-14T03:22:02;15.57;;;9.30;;
2966;SDS011;1493;51.496;7.210;2023-12-14T03:24:29;18.67;;;11.20;;
2966;SDS011;1493;51.496;7.210;2023-12-14T03:27:02;18.97;;;9.63;;
2966;SDS011;1493;51.496;7.210;2023-12-14T03:29:31;13.23;;;10.53;;
2966;SDS011;1493;51.496;7.210;2023-12-14T03:31:58;19.10;;;11.20;;
2966;SDS011;1493;51.496;7.210;2023-12-14T03:34:25;23.07;;;12.80;;
2966;SDS011;1493;51.496;7.210;2023-12-14T03:36:52;13.07;;;9.43;;
2966;SDS011;1493;51.496;7.210;2023-12-14T03:39:18;18.63;;;13.43;;
2966;SDS011;1493;51.496;7.210;2023-12-14T03:41:45;20.13;;;12.20;;
2966;SDS011;1493;51.496;7.210;2023-12-14T03:44:12;16.90;;;10.67;;
2966;SDS011;1493;51.496;7.210;2023-12-14T03:46:40;22.27;;;11.20;;
2966;SDS011;1493;51.496;7.210;2023-12-14T03:49:07;20.83;;;11.40;;
2966;SDS011;1493;51.496;7.210;2023-12-14T03:51:34;20.17;;;10.83;;
2966;SDS011;1493;51.496;7.210;2023-12-14T03:54:03;19.90;;;10.43;;
2966;SDS011;1493;51.496;7.210;2023-12-14T03:56:30;16.67;;;10.80;;
2966;SDS011;1493;51.496;7.210;2023-12-14T03:58:56;18.27;;;11.87;;
2966;SDS011;1493;51.496;7.210;2023-12-14T04:01:23;18.90;;;10.97;;
2966;SDS011;1493;51.496;7.210;2023-12-14T04:03:51;14.73;;;10.07;;
2966;SDS011;1493;51.496;7.210;2023-12-14T04:06:18;20.40;;;12.80;;
2966;SDS011;1493;51.496;7.210;2023-12-14T04:08:45;19.10;;;11.90;;
2966;SDS011;1493;51.496;7.210;2023-12-14T04:11:12;14.30;;;9.03;;
2966;SDS011;1493;51.496;7.210;2023-12-14T04:13:38;15.00;;;10.50;;
2966;SDS011;1493;51.496;7.210;2023-12-14T04:16:05;18.03;;;11.07;;
2966;SDS011;1493;51.496;7.210;2023-12-14T04:18:33;14.90;;;10.37;;
2966;SDS011;1493;51.496;7.210;2023-12-14T04:21:01;18.10;;;9.50;;
2966;SDS011;1493;51.496;7.210;2023-12-14T04:23:28;16.43;;;10.60;;
2966;SDS011;1493;51.496;7.210;2023-12-14T04:25:54;14.73;;;9.43;;
2966;SDS011;1493;51.496;7.210;2023-12-14T04:28:21;12.03;;;8.77;;
2966;SDS011;1493;51.496;7.210;2023-12-14T04:30:48;20.20;;;10.20;;
2966;SDS011;1493;51.496;7.210;2023-12-14T04:33:20;12.30;;;7.80;;
2966;SDS011;1493;51.496;7.210;2023-12-14T04:35:47;12.43;;;8.27;;
2966;SDS011;1493;51.496;7.210;2023-12-14T04:38:15;14.50;;;8.73;;
2966;SDS011;1493;51.496;7.210;2023-12-14T04:40:42;15.27;;;9.13;;
2966;SDS011;1493;51.496;7.210;2023-12-14T04:43:09;14.77;;;8.10;;
2966;SDS011;1493;51.496;7.210;2023-12-14T04:45:35;12.10;;;8.23;;
2966;SDS011;1493;51.496;7.210;2023-12-14T04:48:02;11.10;;;7.80;;
2966;SDS011;1493;51.496;7.210;2023-12-14T04:50:29;10.53;;;6.77;;
2966;SDS011;1493;51.496;7.210;2023-12-14T04:52:56;11.27;;;8.00;;
2966;SDS011;1493;51.496;7.210;2023-12-14T04:55:24;11.27;;;7.40;;
2966;SDS011;1493;51.496;7.210;2023-12-14T04:57:51;10.27;;;7.40;;
2966;SDS011;1493;51.496;7.210;2023-12-14T05:00:20;9.40;;;6.17;;
2966;SDS011;1493;51.496;7.210;2023-12-14T05:02:47;15.03;;;8.33;;
2966;SDS011;1493;51.496;7.210;2023-12-14T05:05:14;14.90;;;10.03;;
2966;SDS011;1493;51.496;7.210;2023-12-14T05:07:41;20.73;;;9.63;;
2966;SDS011;1493;51.496;7.210;2023-12-14T05:10:08;14.77;;;9.07;;
2966;SDS011;1493;51.496;7.210;2023-12-14T05:12:37;17.17;;;9.67;;
2966;SDS011;1493;51.496;7.210;2023-12-14T05:15:04;17.43;;;9.80;;
2966;SDS011;1493;51.496;7.210;2023-12-14T05:17:31;20.80;;;9.90;;
2966;SDS011;1493;51.496;7.210;2023-12-14T05:19:59;17.60;;;9.93;;
2966;SDS011;1493;51.496;7.210;2023-12-14T05:22:26;16.30;;;9.10;;
2966;SDS011;1493;51.496;7.210;2023-12-14T05:24:53;17.60;;;10.30;;
2966;SDS011;1493;51.496;7.210;2023-12-14T05:27:20;17.53;;;10.47;;
2966;SDS011;1493;51.496;7.210;2023-12-14T05:29:48;21.13;;;10.70;;
2966;SDS011;1493;51.496;7.210;2023-12-14T05:32:15;15.43;;;9.53;;
2966;SDS011;1493;51.496;7.210;2023-12-14T05:34:42;13.97;;;9.40;;
2966;SDS011;1493;51.496;7.210;2023-12-14T05:37:08;14.60;;;9.40;;
2966;SDS011;1493;51.496;7.210;2023-12-14T05:39:35;16.47;;;9.70;;
2966;SDS011;1493;51.496;7.210;2023-12-14T05:42:02;13.97;;;8.37;;
2966;SDS011;1493;51.496;7.210;2023-12-14T05:44:29;14.37;;;9.37;;
2966;SDS011;1493;51.496;7.210;2023-12-14T05:46:57;14.67;;;9.80;;
2966;SDS011;1493;51.496;7.210;2023-12-14T05:49:24;15.17;;;8.60;;
2966;SDS011;1493;51.496;7.210;2023-12-14T05:51:51;13.40;;;8.53;;
2966;SDS011;1493;51.496;7.210;2023-12-14T05:54:17;16.80;;;10.20;;
2966;SDS011;1493;51.496;7.210;2023-12-14T05:56:45;17.10;;;9.33;;
2966;SDS011;1493;51.496;7.210;2023-12-14T05:59:12;14.33;;;9.67;;
2966;SDS011;1493;51.496;7.210;2023-12-14T06:01:39;13.87;;;9.23;;
2966;SDS011;1493;51.496;7.210;2023-12-14T06:04:14;19.33;;;10.83;;
2966;SDS011;1493;51.496;7.210;2023-12-14T06:06:40;14.80;;;10.20;;
2966;SDS011;1493;51.496;7.210;2023-12-14T06:09:07;18.63;;;12.70;;
2966;SDS011;1493;51.496;7.210;2023-12-14T06:11:34;23.13;;;12.87;;
2966;SDS011;1493;51.496;7.210;2023-12-14T06:14:01;15.00;;;9.97;;
2966;SDS011;1493;51.496;7.210;2023-12-14T06:16:28;19.50;;;11.90;;
2966;SDS011;1493;51.496;7.210;2023-12-14T06:18:55;18.83;;;11.53;;
2966;SDS011;1493;51.496;7.210;2023-12-14T06:21:23;20.40;;;12.73;;
2966;SDS011;1493;51.496;7.210;2023-12-14T06:23:51;18.77;;;11.70;;
2966;SDS011;1493;51.496;7.210;2023-12-14T06:26:18;18.50;;;12.77;;
2966;SDS011;1493;51.496;7.210;2023-12-14T06:28:44;16.90;;;12.07;;
2966;SDS011;1493;51.496;7.210;2023-12-14T06:31:12;20.23;;;12.57;;
2966;SDS011;1493;51.496;7.210;2023-12-14T06:33:39;19.40;;;12.50;;
2966;SDS011;1493;51.496;7.210;2023-12-14T06:36:07;22.67;;;13.33;;
2966;SDS011;1493;51.496;7.210;2023-12-14T06:38:36;20.77;;;12.83;;
2966;SDS011;1493;51.496;7.210;2023-12-14T06:41:05;19.43;;;11.83;;
2966;SDS011;1493;51.496;7.210;2023-12-14T06:43:34;16.70;;;12.27;;
2966;SDS011;1493;51.496;7.210;2023-12-14T06:46:05;19.40;;;11.60;;
2966;SDS011;1493;51.496;7.210;2023-12-14T06:48:33;24.20;;;13.30;;
2966;SDS011;1493;51.496;7.210;2023-12-14T06:51:04;14.73;;;11.03;;
2966;SDS011;1493;51.496;7.210;2023-12-14T06:53:31;15.23;;;10.20;;
2966;SDS011;1493;51.496;7.210;2023-12-14T06:55:59;15.40;;;9.70;;
2966;SDS011;1493;51.496;7.210;2023-12-14T06:58:26;14.17;;;10.33;;
2966;SDS011;1493;51.496;7.210;2023-12-14T07:00:53;14.67;;;9.30;;
2966;SDS011;1493;51.496;7.210;2023-12-14T07:03:20;13.57;;;9.90;;
2966;SDS011;1493;51.496;7.210;2023-12-14T07:05:46;15.30;;;10.50;;
2966;SDS011;1493;51.496;7.210;2023-12-14T07:08:13;14.57;;;9.00;;
2966;SDS011;1493;51.496;7.210;2023-12-14T07:10:41;12.37;;;8.97;;
2966;SDS011;1493;51.496;7.210;2023-12-14T07:13:09;12.07;;;9.33;;
2966;SDS011;1493;51.496;7.210;2023-12-14T07:15:36;15.93;;;10.30;;
2966;SDS011;1493;51.496;7.210;2023-12-14T07:18:03;16.23;;;10.33;;
2966;SDS011;1493;51.496;7.210;2023-12-14T07:20:30;11.80;;;9.57;;
2966;SDS011;1493;51.496;7.210;2023-12-14T07:22:56;16.57;;;11.93;;
2966;SDS011;1493;51.496;7.210;2023-12-14T07:25:23;15.20;;;11.60;;
2966;SDS011;1493;51.496;7.210;2023-12-14T07:27:50;12.90;;;9.70;;
2966;SDS011;1493;51.496;7.210;2023-12-14T07:30:19;15.10;;;10.97;;
2966;SDS011;1493;51.496;7.210;2023-12-14T07:32:45;15.93;;;8.77;;
2966;SDS011;1493;51.496;7.210;2023-12-14T07:35:12;18.30;;;9.73;;
2966;SDS011;1493;51.496;7.210;2023-12-14T07:37:39;11.67;;;8.33;;
2966;SDS011;1493;51.496;7.210;2023-12-14T07:40:06;13.20;;;8.50;;
2966;SDS011;1493;51.496;7.210;2023-12-14T07:42:34;12.73;;;7.90;;
2966;SDS011;1493;51.496;7.210;2023-12-14T07:45:23;13.03;;;8.67;;
2966;SDS011;1493;51.496;7.210;2023-12-14T07:48:05;11.50;;;8.40;;
2966;SDS011;1493;51.496;7.210;2023-12-14T07:50:36;14.43;;;9.53;;
2966;SDS011;1493;51.496;7.210;2023-12-14T07:53:03;11.30;;;8.03;;
2966;SDS011;1493;51.496;7.210;2023-12-14T07:55:30;13.80;;;9.13;;
2966;SDS011;1493;51.496;7.210;2023-12-14T07:57:57;11.83;;;8.33;;
2966;SDS011;1493;51.496;7.210;2023-12-14T08:00:24;10.10;;;7.73;;
2966;SDS011;1493;51.496;7.210;2023-12-14T08:02:52;11.80;;;7.90;;
2966;SDS011;1493;51.496;7.210;2023-12-14T08:05:19;12.20;;;8.70;;
2966;SDS011;1493;51.496;7.210;2023-12-14T08:07:46;13.10;;;8.87;;
2966;SDS011;1493;51.496;7.210;2023-12-14T08:10:13;14.03;;;10.53;;
2966;SDS011;1493;51.496;7.210;2023-12-14T08:12:40;14.10;;;9.10;;
2966;SDS011;1493;51.496;7.210;2023-12-14T08:15:07;15.33;;;10.23;;
2966;SDS011;1493;51.496;7.210;2023-12-14T08:17:35;13.60;;;9.10;;
2966;SDS011;1493;51.496;7.210;2023-12-14T08:20:03;14.07;;;10.10;;
2966;SDS011;1493;51.496;7.210;2023-12-14T08:22:33;12.80;;;8.60;;
2966;SDS011;1493;51.496;7.210;2023-12-14T08:25:06;12.97;;;8.97;;
2966;SDS011;1493;51.496;7.210;2023-12-14T08:27:35;12.77;;;9.63;;
2966;SDS011;1493;51.496;7.210;2023-12-14T08:30:04;12.57;;;9.40;;
2966;SDS011;1493;51.496;7.210;2023-12-14T08:32:34;11.43;;;9.63;;
2966;SDS011;1493;51.496;7.210;2023-12-14T08:35:19;11.60;;;8.60;;
2966;SDS011;1493;51.496;7.210;2023-12-14T08:42:02;12.77;;;8.30;;
2966;SDS011;1493;51.496;7.210;2023-12-14T08:44:45;9.70;;;7.80;;
2966;SDS011;1493;51.496;7.210;2023-12-14T08:47:20;14.00;;;8.60;;
2966;SDS011;1493;51.496;7.210;2023-12-14T08:49:56;15.90;;;10.70;;
2966;SDS011;1493;51.496;7.210;2023-12-14T08:52:51;17.27;;;12.50;;
2966;SDS011;1493;51.496;7.210;2023-12-14T08:55:20;14.93;;;10.90;;
2966;SDS011;1493;51.496;7.210;2023-12-14T08:57:46;16.90;;;11.23;;
2966;SDS011;1493;51.496;7.210;2023-12-14T09:00:27;18.27;;;13.20;;
2966;SDS011;1493;51.496;7.210;2023-12-14T09:03:22;18.10;;;11.80;;
2966;SDS011;1493;51.496;7.210;2023-12-14T09:06:10;18.03;;;11.07;;
2966;SDS011;1493;51.496;7.210;2023-12-14T09:08:41;19.37;;;12.93;;
2966;SDS011;1493;51.496;7.210;2023-12-14T09:11:09;15.83;;;11.53;;
2966;SDS011;1493;51.496;7.210;2023-12-14T09:14:13;17.20;;;12.07;;
2966;SDS011;1493;51.496;7.210;2023-12-14T09:16:42;20.80;;;13.00;;
2966;SDS011;1493;51.496;7.210;2023-12-14T09:19:12;16.60;;;12.00;;
2966;SDS011;1493;51.496;7.210;2023-12-14T09:21:44;19.40;;;11.50;;
2966;SDS011;1493;51.496;7.210;2023-12-14T09:24:17;24.60;;;13.70;;
2966;SDS011;1493;51.496;7.210;2023-12-14T09:26:48;18.53;;;11.97;;
2966;SDS011;1493;51.496;7.210;2023-12-14T09:29:22;20.20;;;12.57;;
2966;SDS011;1493;51.496;7.210;2023-12-14T09:31:57;14.77;;;10.97;;
2966;SDS011;1493;51.496;7.210;2023-12-14T09:34:25;25.43;;;14.67;;
2966;SDS011;1493;51.496;7.210;2023-12-14T09:36:53;20.47;;;13.30;;
2966;SDS011;1493;51.496;7.210;2023-12-14T09:39:53;18.23;;;12.37;;
2966;SDS011;1493;51.496;7.210;2023-12-14T09:42:28;21.50;;;14.53;;
2966;SDS011;1493;51.496;7.210;2023-12-14T09:45:06;19.17;;;13.93;;
2966;SDS011;1493;51.496;7.210;2023-12-14T09:47:40;18.20;;;12.40;;
2966;SDS011;1493;51.496;7.210;2023-12-14T09:50:20;18.20;;;12.47;;
2966;SDS011;1493;51.496;7.210;2023-12-14T09:52:50;22.03;;;13.00;;
2966;SDS011;1493;51.496;7.210;2023-12-14T09:55:36;18.40;;;12.40;;
2966;SDS011;1493;51.496;7.210;2023-12-14T09:58:16;20.83;;;11.97;;
2966;SDS011;1493;51.496;7.210;2023-12-14T10:00:46;21.13;;;14.23;;
2966;SDS011;1493;51.496;7.210;2023-12-14T10:06:19;21.60;;;12.87;;
2966;SDS011;1493;51.496;7.210;2023-12-14T10:08:55;19.00;;;12.27;;
2966;SDS011;1493;51.496;7.210;2023-12-14T10:11:40;19.20;;;12.83;;
2966;SDS011;1493;51.496;7.210;2023-12-14T10:14:37;20.93;;;12.20;;
2966;SDS011;1493;51.496;7.210;2023-12-14T10:17:19;17.90;;;12.93;;
2966;SDS011;1493;51.496;7.210;2023-12-14T10:19:59;19.83;;;12.27;;
2966;SDS011;1493;51.496;7.210;2023-12-14T10:22:30;17.93;;;11.27;;
2966;SDS011;1493;51.496;7.210;2023-12-14T10:24:57;19.97;;;12.80;;
2966;SDS011;1493;51.496;7.210;2023-12-14T10:30:52;18.70;;;13.23;;
2966;SDS011;1493;51.496;7.210;2023-12-14T10:33:24;21.87;;;13.13;;
2966;SDS011;1493;51.496;7.210;2023-12-14T10:35:51;21.63;;;12.83;;
2966;SDS011;1493;51.496;7.210;2023-12-14T10:38:20;19.03;;;11.97;;
2966;SDS011;1493;51.496;7.210;2023-12-14T10:41:10;20.27;;;13.47;;
2966;SDS011;1493;51.496;7.210;2023-12-14T10:47:10;18.93;;;12.00;;
2966;SDS011;1493;51.496;7.210;2023-12-14T10:52:45;19.67;;;12.83;;
2966;SDS011;1493;51.496;7.210;2023-12-14T10:55:21;20.40;;;13.27;;
2966;SDS011;1493;51.496;7.210;2023-12-14T10:58:07;20.20;;;13.13;;
2966;SDS011;1493;51.496;7.210;2023-12-14T11:00:35;17.77;;;11.63;;
2966;SDS011;1493;51.496;7.210;2023-12-14T11:03:04;18.30;;;11.63;;
2966;SDS011;1493;51.496;7.210;2023-12-14T11:05:34;20.17;;;12.40;;
2966;SDS011;1493;51.496;7.210;2023-12-14T11:08:03;18.20;;;11.97;;
2966;SDS011;1493;51.496;7.210;2023-12-14T11:11:20;17.90;;;11.50;;
2966;SDS011;1493;51.496;7.210;2023-12-14T11:17:05;19.27;;;11.67;;
2966;SDS011;1493;51.496;7.210;2023-12-14T11:19:38;17.47;;;11.33;;
2966;SDS011;1493;51.496;7.210;2023-12-14T11:22:26;19.20;;;13.10;;
2966;SDS011;1493;51.496;7.210;2023-12-14T11:24:59;14.73;;;10.87;;
2966;SDS011;1493;51.496;7.210;2023-12-14T11:27:30;16.97;;;11.50;;
2966;SDS011;1493;51.496;7.210;2023-12-14T11:29:59;16.90;;;12.80;;
2966;SDS011;1493;51.496;7.210;2023-12-14T11:32:28;15.13;;;9.70;;
2966;SDS011;1493;51.496;7.210;2023-12-14T11:34:57;16.80;;;9.10;;
2966;SDS011;1493;51.496;7.210;2023-12-14T11:37:59;13.27;;;8.60;;
2966;SDS011;1493;51.496;7.210;2023-12-14T11:40:37;12.33;;;7.60;;
2966;SDS011;1493;51.496;7.210;2023-12-14T11:43:29;12.73;;;7.40;;
2966;SDS011;1493;51.496;7.210;2023-12-14T11:46:46;11.43;;;7.20;;
2966;SDS011;1493;51.496;7.210;2023-12-14T11:49:12;15.93;;;8.37;;
2966;SDS011;1493;51.496;7.210;2023-12-14T11:54:34;13.00;;;8.70;;
2966;SDS011;1493;51.496;7.210;2023-12-14T11:57:05;11.30;;;7.97;;
2966;SDS011;1493;51.496;7.210;2023-12-14T11:59:39;11.33;;;8.23;;
2966;SDS011;1493;51.496;7.210;2023-12-14T12:02:10;12.17;;;7.50;;
2966;SDS011;1493;51.496;7.210;2023-12-14T12:04:39;12.43;;;7.70;;
2966;SDS011;1493;51.496;7.210;2023-12-14T12:07:25;11.50;;;7.33;;
2966;SDS011;1493;51.496;7.210;2023-12-14T12:10:03;13.50;;;8.00;;
2966;SDS011;1493;51.496;7.210;2023-12-14T12:12:39;12.87;;;7.73;;
2966;SDS011;1493;51.496;7.210;2023-12-14T12:15:20;11.67;;;6.67;;
2966;SDS011;1493;51.496;7.210;2023-12-14T12:17:48;14.33;;;8.30;;
2966;SDS011;1493;51.496;7.210;2023-12-14T12:20:15;12.27;;;7.77;;
2966;SDS011;1493;51.496;7.210;2023-12-14T12:22:48;11.40;;;7.43;;
2966;SDS011;1493;51.496;7.210;2023-12-14T12:25:15;14.57;;;8.43;;
2966;SDS011;1493;51.496;7.210;2023-12-14T12:27:43;14.60;;;8.83;;
2966;SDS011;1493;51.496;7.210;2023-12-14T12:33:04;14.43;;;9.03;;
2966;SDS011;1493;51.496;7.210;2023-12-14T12:35:36;13.00;;;7.83;;
2966;SDS011;1493;51.496;7.210;2023-12-14T12:38:10;14.13;;;9.47;;
2966;SDS011;1493;51.496;7.210;2023-12-14T12:40:41;13.80;;;8.40;;
2966;SDS011;1493;51.496;7.210;2023-12-14T12:43:08;13.03;;;8.87;;
2966;SDS011;1493;51.496;7.210;2023-12-14T12:45:34;15.00;;;9.00;;
2966;SDS011;1493;51.496;7.210;2023-12-14T12:48:02;14.90;;;9.30;;
2966;SDS011;1493;51.496;7.210;2023-12-14T12:50:33;16.40;;;9.93;;
2966;SDS011;1493;51.496;7.210;2023-12-14T12:53:00;18.10;;;10.63;;
2966;SDS011;1493;51.496;7.210;2023-12-14T12:55:39;15.80;;;9.53;;
2966;SDS011;1493;51.496;7.210;2023-12-14T12:58:05;15.23;;;9.07;;
2966;SDS011;1493;51.496;7.210;2023-12-14T13:00:40;13.63;;;8.93;;
2966;SDS011;1493;51.496;7.210;2023-12-14T13:03:09;16.07;;;9.90;;
2966;SDS011;1493;51.496;7.210;2023-12-14T13:05:37;13.00;;;8.93;;
2966;SDS011;1493;51.496;7.210;2023-12-14T13:08:18;13.10;;;9.73;;
2966;SDS011;1493;51.496;7.210;2023-12-14T13:10:55;13.30;;;9.07;;
2966;SDS011;1493;51.496;7.210;2023-12-14T13:13:22;13.37;;;8.07;;
2966;SDS011;1493;51.496;7.210;2023-12-14T13:15:49;11.27;;;8.00;;
2966;SDS011;1493;51.496;7.210;2023-12-14T13:18:16;13.07;;;8.50;;
2966;SDS011;1493;51.496;7.210;2023-12-14T13:20:43;14.03;;;9.33;;
2966;SDS011;1493;51.496;7.210;2023-12-14T13:23:10;16.03;;;10.30;;
2966;SDS011;1493;51.496;7.210;2023-12-14T13:25:37;13.93;;;9.00;;
2966;SDS011;1493;51.496;7.210;2023-12-14T13:28:05;15.33;;;9.60;;
2966;SDS011;1493;51.496;7.210;2023-12-14T13:30:32;17.17;;;9.00;;
2966;SDS011;1493;51.496;7.210;2023-12-14T13:32:59;17.50;;;9.57;;
2966;SDS011;1493;51.496;7.210;2023-12-14T13:35:30;13.80;;;8.30;;
2966;SDS011;1493;51.496;7.210;2023-12-14T13:37:57;13.77;;;8.97;;
2966;SDS011;1493;51.496;7.210;2023-12-14T13:40:24;13.50;;;8.13;;
2966;SDS011;1493;51.496;7.210;2023-12-14T13:43:02;11.73;;;8.20;;
2966;SDS011;1493;51.496;7.210;2023-12-14T13:45:37;13.73;;;8.60;;
2966;SDS011;1493;51.496;7.210;2023-12-14T13:48:06;13.37;;;7.80;;
2966;SDS011;1493;51.496;7.210;2023-12-14T13:50:35;11.90;;;7.07;;
2966;SDS011;1493;51.496;7.210;2023-12-14T13:53:24;14.33;;;8.63;;
2966;SDS011;1493;51.496;7.210;2023-12-14T13:55:57;12.30;;;7.67;;
2966;SDS011;1493;51.496;7.210;2023-12-14T13:58:34;10.30;;;6.70;;
2966;SDS011;1493;51.496;7.210;2023-12-14T14:01:07;11.90;;;7.57;;
2966;SDS011;1493;51.496;7.210;2023-12-14T14:03:34;11.17;;;8.00;;
2966;SDS011;1493;51.496;7.210;2023-12-14T14:06:03;11.53;;;7.13;;
2966;SDS011;1493;51.496;7.210;2023-12-14T14:08:30;12.33;;;7.97;;
2966;SDS011;1493;51.496;7.210;2023-12-14T14:10:59;11.13;;;8.03;;
2966;SDS011;1493;51.496;7.210;2023-12-14T14:13:27;12.27;;;6.67;;
2966;SDS011;1493;51.496;7.210;2023-12-14T14:22:11;9.27;;;6.30;;
2966;SDS011;1493;51.496;7.210;2023-12-14T14:24:46;8.97;;;6.40;;
2966;SDS011;1493;51.496;7.210;2023-12-14T14:27:26;14.27;;;6.57;;
2966;SDS011;1493;51.496;7.210;2023-12-14T14:29:53;10.67;;;7.13;;
2966;SDS011;1493;51.496;7.210;2023-12-14T14:32:21;9.40;;;7.07;;
2966;SDS011;1493;51.496;7.210;2023-12-14T14:34:55;11.67;;;7.57;;
2966;SDS011;1493;51.496;7.210;2023-12-14T14:37:32;11.57;;;7.77;;
2966;SDS011;1493;51.496;7.210;2023-12-14T14:39:59;13.03;;;8.10;;
2966;SDS011;1493;51.496;7.210;2023-12-14T14:42:26;13.40;;;9.20;;
2966;SDS011;1493;51.496;7.210;2023-12-14T14:44:55;15.87;;;10.80;;
2966;SDS011;1493;51.496;7.210;2023-12-14T14:47:21;14.87;;;9.03;;
2966;SDS011;1493;51.496;7.210;2023-12-14T14:49:49;12.00;;;8.87;;
2966;SDS011;1493;51.496;7.210;2023-12-14T14:52:17;14.47;;;9.77;;
2966;SDS011;1493;51.496;7.210;2023-12-14T14:54:44;16.33;;;9.73;;
2966;SDS011;1493;51.496;7.210;2023-12-14T14:57:11;15.43;;;8.60;;
2966;SDS011;1493;51.496;7.210;2023-12-14T14:59:38;15.90;;;9.73;;
2966;SDS011;1493;51.496;7.210;2023-12-14T15:02:04;14.47;;;10.33;;
2966;SDS011;1493;51.496;7.210;2023-12-14T15:04:31;14.13;;;9.43;;
2966;SDS011;1493;51.496;7.210;2023-12-14T15:06:58;14.70;;;9.73;;
2966;SDS011;1493;51.496;7.210;2023-12-14T15:09:25;16.03;;;10.33;;
2966;SDS011;1493;51.496;7.210;2023-12-14T15:11:52;12.70;;;9.00;;
2966;SDS011;1493;51.496;7.210;2023-12-14T15:14:19;15.77;;;10.20;;
2966;SDS011;1493;51.496;7.210;2023-12-14T15:16:46;14.67;;;10.40;;
2966;SDS011;1493;51.496;7.210;2023-12-14T15:19:13;15.77;;;9.77;;
2966;SDS011;1493;51.496;7.210;2023-12-14T15:21:41;17.63;;;11.97;;
2966;SDS011;1493;51.496;7.210;2023-12-14T15:24:08;21.10;;;11.90;;
2966;SDS011;1493;51.496;7.210;2023-12-14T15:26:36;17.60;;;10.30;;
2966;SDS011;1493;51.496;7.210;2023-12-14T15:29:06;12.80;;;9.77;;
2966;SDS011;1493;51.496;7.210;2023-12-14T15:31:33;16.00;;;10.70;;
2966;SDS011;1493;51.496;7.210;2023-12-14T15:34:00;16.03;;;10.97;;
2966;SDS011;1493;51.496;7.210;2023-12-14T15:36:27;13.93;;;8.70;;
2966;SDS011;1493;51.496;7.210;2023-12-14T15:38:59;15.73;;;10.13;;
2966;SDS011;1493;51.496;7.210;2023-12-14T15:41:25;15.73;;;9.97;;
2966;SDS011;1493;51.496;7.210;2023-12-14T15:43:54;15.27;;;10.53;;